createdAt,value
2022-10-20T00:01:27.709Z,3.00
2022-10-20T00:03:54.314Z,3.40
2022-10-20T00:06:27.799Z,2.90
2022-10-20T00:08:55.261Z,3.67
2022-10-20T00:11:21.920Z,3.40
2022-10-20T00:13:49.855Z,3.20
2022-10-20T00:16:16.677Z,3.35
2022-10-20T00:18:43.032Z,3.20
2022-10-20T00:21:10.874Z,3.00
2022-10-20T00:23:37.233Z,3.08
2022-10-20T00:26:23.845Z,3.30
2022-10-20T00:28:50.275Z,3.40
2022-10-20T00:31:17.180Z,3.15
2022-10-20T00:33:43.489Z,3.45
2022-10-20T00:36:12.340Z,3.33
2022-10-20T00:38:38.719Z,3.60
2022-10-20T00:41:05.230Z,3.08
2022-10-20T00:43:43.850Z,3.30
2022-10-20T00:46:14.839Z,3.20
2022-10-20T00:48:42.837Z,3.47
2022-10-20T00:51:09.288Z,3.70
2022-10-20T00:53:36.126Z,3.22
2022-10-20T00:56:02.573Z,3.20
2022-10-20T00:58:28.990Z,3.13
2022-10-20T01:00:56.527Z,3.30
2022-10-20T01:03:24.726Z,3.38
2022-10-20T01:05:51.186Z,3.28
2022-10-20T01:08:17.574Z,3.22
2022-10-20T01:11:06.521Z,3.33
2022-10-20T01:13:51.025Z,3.22
2022-10-20T01:16:23.705Z,3.25
2022-10-20T01:18:57.358Z,4.07
2022-10-20T01:21:35.961Z,3.70
2022-10-20T01:24:14.474Z,3.20
2022-10-20T01:26:40.846Z,3.65
2022-10-20T01:29:13.188Z,3.70
2022-10-20T01:31:48.194Z,3.58
2022-10-20T01:34:26.252Z,3.10
2022-10-20T01:36:58.552Z,3.30
2022-10-20T01:39:34.178Z,3.92
2022-10-20T01:42:04.199Z,3.83
2022-10-20T01:44:31.757Z,3.90
2022-10-20T01:46:58.557Z,3.47
2022-10-20T01:49:25.539Z,3.58
2022-10-20T01:51:52.680Z,4.00
2022-10-20T01:54:21.903Z,4.15
2022-10-20T01:57:02.887Z,3.72
2022-10-20T01:59:44.283Z,4.20
2022-10-20T02:02:23.995Z,4.13
2022-10-20T02:04:56.458Z,4.07
2022-10-20T02:07:24.993Z,4.47
2022-10-20T02:12:27.716Z,4.72
2022-10-20T02:14:55.249Z,4.43
2022-10-20T02:17:21.975Z,4.13
2022-10-20T02:19:50.019Z,4.57
2022-10-20T02:22:16.888Z,4.65
2022-10-20T02:24:44.410Z,4.47
2022-10-20T02:27:13.328Z,4.50
2022-10-20T02:29:43.315Z,4.35
2022-10-20T02:32:10.839Z,4.82
2022-10-20T02:34:40.962Z,4.55
2022-10-20T02:37:08.998Z,5.43
2022-10-20T02:39:35.346Z,5.55
2022-10-20T02:42:01.671Z,6.47
2022-10-20T02:44:28.006Z,6.38
2022-10-20T02:46:54.300Z,6.40
2022-10-20T02:49:21.531Z,6.15
2022-10-20T02:51:47.898Z,6.05
2022-10-20T02:54:14.211Z,5.80
2022-10-20T02:56:40.573Z,5.93
2022-10-20T02:59:06.871Z,5.93
2022-10-20T03:01:33.260Z,5.93
2022-10-20T03:04:00.002Z,6.05
2022-10-20T03:06:26.675Z,6.13
2022-10-20T03:08:53.088Z,5.97
2022-10-20T03:11:19.440Z,6.20
2022-10-20T03:13:45.808Z,5.90
2022-10-20T03:16:12.231Z,7.10
2022-10-20T03:18:38.537Z,6.63
2022-10-20T03:21:04.871Z,6.68
2022-10-20T03:23:31.199Z,7.05
2022-10-20T03:26:05.006Z,7.32
2022-10-20T03:28:31.898Z,7.75
2022-10-20T03:30:58.227Z,7.63
2022-10-20T03:33:24.641Z,7.53
2022-10-20T03:35:51.017Z,8.02
2022-10-20T03:38:17.376Z,7.72
2022-10-20T03:40:43.680Z,7.68
2022-10-20T03:43:09.969Z,8.10
2022-10-20T03:45:36.375Z,7.65
2022-10-20T03:48:02.723Z,7.50
2022-10-20T03:50:32.001Z,7.75
2022-10-20T03:52:58.360Z,7.35
2022-10-20T03:55:24.682Z,7.80
2022-10-20T03:57:53.255Z,7.18
2022-10-20T04:00:19.659Z,7.80
2022-10-20T04:02:46.656Z,7.60
2022-10-20T04:05:17.665Z,7.40
2022-10-20T04:07:43.962Z,7.53
2022-10-20T04:10:10.980Z,7.55
2022-10-20T04:12:37.967Z,7.55
2022-10-20T04:15:05.055Z,7.25
2022-10-20T04:17:31.440Z,7.40
2022-10-20T04:19:57.847Z,7.63
2022-10-20T04:22:24.173Z,7.35
2022-10-20T04:24:50.553Z,8.07
2022-10-20T04:27:16.847Z,7.45
2022-10-20T04:29:43.289Z,7.20
2022-10-20T04:32:09.597Z,7.15
2022-10-20T04:34:36.566Z,7.60
2022-10-20T04:37:02.955Z,7.63
2022-10-20T04:39:29.272Z,8.20
2022-10-20T04:41:55.719Z,7.70
2022-10-20T04:44:22.111Z,7.75
2022-10-20T04:46:48.498Z,8.18
2022-10-20T04:49:15.237Z,7.40
2022-10-20T04:51:41.595Z,7.50
2022-10-20T04:54:07.942Z,8.27
2022-10-20T04:56:34.308Z,8.13
2022-10-20T04:59:00.769Z,8.98
2022-10-20T05:01:28.648Z,8.80
2022-10-20T05:03:55.220Z,8.18
2022-10-20T05:06:23.267Z,7.90
2022-10-20T05:08:51.702Z,7.93
2022-10-20T05:11:18.741Z,8.43
2022-10-20T05:13:45.297Z,8.98
2022-10-20T05:16:12.600Z,9.60
2022-10-20T05:18:39.707Z,8.73
2022-10-20T05:21:09.705Z,9.15
2022-10-20T05:23:36.806Z,8.40
2022-10-20T05:26:04.245Z,8.25
2022-10-20T05:28:30.639Z,9.15
2022-10-20T05:31:01.633Z,8.52
2022-10-20T05:33:28.299Z,9.40
2022-10-20T05:35:54.697Z,8.88
2022-10-20T05:38:20.996Z,9.60
2022-10-20T05:40:47.340Z,11.05
2022-10-20T05:43:15.895Z,9.57
2022-10-20T05:45:43.470Z,9.27
2022-10-20T05:48:09.786Z,8.35
2022-10-20T05:50:36.298Z,10.02
2022-10-20T05:53:02.714Z,10.15
2022-10-20T05:55:29.020Z,12.60
2022-10-20T05:57:55.473Z,12.82
2022-10-20T06:00:30.230Z,11.27
2022-10-20T06:02:57.041Z,10.80
2022-10-20T06:05:23.442Z,11.13
2022-10-20T06:07:49.817Z,9.65
2022-10-20T06:10:16.230Z,9.23
2022-10-20T06:12:42.574Z,9.98
2022-10-20T06:15:09.131Z,9.65
2022-10-20T06:17:35.517Z,9.55
2022-10-20T06:20:01.821Z,9.52
2022-10-20T06:22:28.132Z,9.02
2022-10-20T06:24:54.509Z,9.52
2022-10-20T06:27:20.857Z,9.15
2022-10-20T06:29:47.165Z,9.57
2022-10-20T06:34:40.884Z,9.75
2022-10-20T06:37:09.092Z,9.85
2022-10-20T06:39:35.490Z,9.70
2022-10-20T06:42:06.981Z,10.55
2022-10-20T06:44:36.038Z,9.70
2022-10-20T06:47:02.336Z,9.68
2022-10-20T06:49:28.630Z,9.18
2022-10-20T06:51:55.090Z,8.73
2022-10-20T06:54:21.471Z,9.70
2022-10-20T06:56:47.791Z,9.45
2022-10-20T06:59:14.136Z,9.07
2022-10-20T07:01:40.632Z,10.65
2022-10-20T07:04:09.884Z,10.43
2022-10-20T07:06:37.941Z,10.10
2022-10-20T07:09:05.175Z,9.95
2022-10-20T07:11:31.783Z,10.07
2022-10-20T07:13:58.843Z,9.85
2022-10-20T07:16:26.411Z,9.00
2022-10-20T07:18:53.163Z,8.93
2022-10-20T07:21:21.545Z,9.00
2022-10-20T07:23:48.553Z,7.82
2022-10-20T07:26:21.819Z,8.27
2022-10-20T07:28:54.671Z,7.72
2022-10-20T07:31:22.123Z,7.32
2022-10-20T07:34:06.685Z,6.57
2022-10-20T07:36:36.313Z,6.53
2022-10-20T07:39:04.360Z,5.45
2022-10-20T07:41:30.887Z,4.88
2022-10-20T07:43:57.440Z,4.40
2022-10-20T07:46:24.206Z,4.82
2022-10-20T07:48:50.564Z,4.13
2022-10-20T07:51:19.907Z,3.47
2022-10-20T07:53:46.268Z,3.03
2022-10-20T07:56:13.015Z,2.80
2022-10-20T07:58:39.446Z,2.78
2022-10-20T08:01:06.256Z,2.92
2022-10-20T08:03:32.638Z,2.28
2022-10-20T08:05:59.087Z,2.22
2022-10-20T08:08:25.485Z,2.30
2022-10-20T08:10:51.966Z,1.90
2022-10-20T08:13:18.470Z,2.30
2022-10-20T08:18:32.728Z,2.10
2022-10-20T08:21:18.481Z,2.05
2022-10-20T08:23:45.807Z,2.05
2022-10-20T08:26:13.087Z,1.95
2022-10-20T08:28:39.482Z,1.98
2022-10-20T08:31:07.152Z,2.22
2022-10-20T08:33:33.716Z,1.95
2022-10-20T08:36:07.422Z,2.00
2022-10-20T08:38:33.827Z,1.85
2022-10-20T08:41:00.769Z,2.17
2022-10-20T08:43:28.299Z,1.92
2022-10-20T08:45:54.728Z,2.13
2022-10-20T08:48:24.054Z,2.00
2022-10-20T08:50:51.567Z,2.00
2022-10-20T08:53:19.713Z,1.90
2022-10-20T08:55:46.379Z,1.77
2022-10-20T08:58:16.675Z,1.85
2022-10-20T09:00:43.471Z,1.60
2022-10-20T09:03:21.916Z,1.60
2022-10-20T09:05:50.998Z,1.50
2022-10-20T09:08:18.676Z,1.35
2022-10-20T09:10:47.339Z,1.58
2022-10-20T09:13:24.848Z,1.45
2022-10-20T09:15:53.016Z,1.50
2022-10-20T09:18:20.214Z,1.50
2022-10-20T09:20:49.246Z,1.30
2022-10-20T09:23:39.265Z,1.38
2022-10-20T09:26:04.264Z,1.30
2022-10-20T09:28:34.968Z,1.30
2022-10-20T09:31:40.751Z,1.30
2022-10-20T09:34:27.118Z,1.40
2022-10-20T09:36:57.857Z,1.10
2022-10-20T09:39:26.280Z,1.20
2022-10-20T09:41:59.715Z,1.30
2022-10-20T09:44:26.098Z,1.25
2022-10-20T09:46:53.558Z,1.27
2022-10-20T09:49:28.738Z,1.15
2022-10-20T09:51:55.229Z,1.20
2022-10-20T09:54:23.227Z,1.02
2022-10-20T09:56:49.975Z,1.40
2022-10-20T09:59:25.422Z,1.30
2022-10-20T10:01:59.132Z,1.17
2022-10-20T10:04:31.090Z,1.50
2022-10-20T10:06:57.415Z,1.20
2022-10-20T10:09:34.499Z,1.27
2022-10-20T10:12:13.251Z,1.23
2022-10-20T10:14:50.158Z,1.33
2022-10-20T10:17:52.057Z,1.02
2022-10-20T10:20:44.523Z,1.45
2022-10-20T10:23:25.352Z,1.27
2022-10-20T10:25:52.517Z,1.15
2022-10-20T10:28:31.198Z,1.15
2022-10-20T10:31:16.021Z,1.10
2022-10-20T10:33:42.660Z,1.08
2022-10-20T10:36:14.676Z,1.30
2022-10-20T10:38:41.111Z,1.13
2022-10-20T10:41:30.264Z,1.30
2022-10-20T10:44:02.561Z,1.30
2022-10-20T10:46:36.784Z,1.10
2022-10-20T10:49:15.186Z,1.20
2022-10-20T10:51:49.720Z,1.27
2022-10-20T10:54:24.903Z,1.27
2022-10-20T10:56:55.939Z,1.23
2022-10-20T10:59:41.265Z,1.20
2022-10-20T11:02:22.849Z,1.17
2022-10-20T11:05:01.582Z,1.80
2022-10-20T11:07:43.095Z,1.23
2022-10-20T11:10:32.835Z,1.40
2022-10-20T11:13:19.231Z,1.33
2022-10-20T11:16:07.343Z,1.35
2022-10-20T11:18:33.629Z,1.33
2022-10-20T11:21:06.149Z,1.45
2022-10-20T11:23:38.651Z,1.60
2022-10-20T11:26:14.164Z,1.38
2022-10-20T11:28:48.238Z,1.60
2022-10-20T11:31:18.990Z,1.35
2022-10-20T11:33:47.495Z,1.40
2022-10-20T11:36:18.499Z,1.50
2022-10-20T11:38:44.864Z,1.55
2022-10-20T11:41:17.019Z,1.50
2022-10-20T11:43:48.566Z,1.50
2022-10-20T11:46:17.653Z,1.40
2022-10-20T11:48:43.976Z,1.40
2022-10-20T11:51:28.952Z,1.40
2022-10-20T11:54:14.326Z,1.50
2022-10-20T11:56:46.725Z,1.30
2022-10-20T11:59:31.775Z,1.30
2022-10-20T12:02:17.197Z,1.33
2022-10-20T12:04:46.609Z,1.50
2022-10-20T12:07:13.040Z,1.20
2022-10-20T12:09:39.335Z,1.42
2022-10-20T12:12:09.942Z,1.15
2022-10-20T12:14:41.511Z,1.33
2022-10-20T12:17:26.812Z,1.20
2022-10-20T12:20:13.087Z,1.30
2022-10-20T12:22:40.860Z,1.50
2022-10-20T12:25:07.177Z,1.40
2022-10-20T12:27:33.544Z,1.30
2022-10-20T12:30:01.778Z,1.30
2022-10-20T12:32:28.092Z,1.25
2022-10-20T12:34:58.689Z,1.40
2022-10-20T12:37:25.017Z,1.50
2022-10-20T12:39:52.634Z,1.30
2022-10-20T12:42:23.739Z,1.80
2022-10-20T12:44:50.716Z,1.30
2022-10-20T12:47:23.759Z,1.40
2022-10-20T12:50:01.027Z,1.45
2022-10-20T12:52:29.250Z,1.60
2022-10-20T12:55:00.111Z,1.55
2022-10-20T12:57:26.592Z,1.45
2022-10-20T12:59:53.074Z,1.50
2022-10-20T13:02:22.587Z,1.42
2022-10-20T13:05:07.351Z,1.10
2022-10-20T13:07:45.927Z,1.70
2022-10-20T13:10:29.231Z,1.58
2022-10-20T13:12:55.534Z,1.35
2022-10-20T13:15:22.352Z,1.48
2022-10-20T13:17:52.159Z,1.27
2022-10-20T13:20:22.891Z,1.35
2022-10-20T13:22:53.751Z,1.20
2022-10-20T13:25:33.018Z,1.60
2022-10-20T13:28:06.731Z,1.23
2022-10-20T13:30:34.070Z,1.30
2022-10-20T13:33:11.279Z,1.20
2022-10-20T13:35:53.779Z,1.48
2022-10-20T13:38:22.337Z,1.30
2022-10-20T13:40:58.370Z,1.35
2022-10-20T13:43:32.369Z,1.40
2022-10-20T13:46:04.813Z,1.45
2022-10-20T13:48:43.376Z,1.50
2022-10-20T13:51:24.983Z,1.25
2022-10-20T13:53:53.134Z,1.38
2022-10-20T13:56:42.714Z,1.40
2022-10-20T13:59:12.122Z,1.50
2022-10-20T14:01:38.577Z,1.55
2022-10-20T14:04:23.763Z,1.80
2022-10-20T14:06:50.142Z,1.80
2022-10-20T14:09:24.481Z,1.85
2022-10-20T14:12:02.176Z,1.55
2022-10-20T14:14:29.378Z,2.00
2022-10-20T14:16:58.885Z,1.75
2022-10-20T14:19:28.700Z,1.73
2022-10-20T14:21:59.410Z,1.63
2022-10-20T14:24:31.141Z,1.85
2022-10-20T14:29:37.530Z,2.03
2022-10-20T14:32:04.435Z,1.80
2022-10-20T14:34:33.361Z,2.00
2022-10-20T14:37:00.060Z,1.70
2022-10-20T14:39:37.617Z,1.42
2022-10-20T14:42:05.726Z,1.70
2022-10-20T14:44:32.298Z,1.85
2022-10-20T14:47:00.772Z,1.50
2022-10-20T14:49:29.154Z,1.80
2022-10-20T14:51:55.467Z,1.83
2022-10-20T14:54:26.231Z,2.05
2022-10-20T14:56:54.885Z,2.28
2022-10-20T14:59:23.291Z,1.70
2022-10-20T15:02:12.258Z,2.03
2022-10-20T15:04:39.457Z,2.08
2022-10-20T15:07:10.751Z,2.88
2022-10-20T15:09:42.570Z,2.72
2022-10-20T15:12:31.069Z,2.35
2022-10-20T15:15:12.523Z,2.33
2022-10-20T15:17:40.396Z,2.78
2022-10-20T15:20:25.463Z,2.63
2022-10-20T15:22:54.681Z,2.90
2022-10-20T15:25:21.858Z,3.10
2022-10-20T15:27:48.277Z,3.17
2022-10-20T15:30:19.073Z,3.47
2022-10-20T15:32:45.668Z,3.13
2022-10-20T15:35:12.762Z,3.22
2022-10-20T15:37:39.089Z,3.17
2022-10-20T15:40:05.750Z,3.95
2022-10-20T15:42:32.086Z,3.55
2022-10-20T15:44:58.378Z,3.97
2022-10-20T15:47:24.729Z,4.13
2022-10-20T15:49:51.105Z,3.80
2022-10-20T15:52:17.789Z,3.70
2022-10-20T15:54:44.195Z,3.85
2022-10-20T15:57:10.494Z,4.13
2022-10-20T15:59:36.872Z,4.05
2022-10-20T16:02:03.196Z,4.03
2022-10-20T16:04:31.467Z,4.95
2022-10-20T16:07:02.639Z,4.90
2022-10-20T16:09:29.524Z,4.15
2022-10-20T16:11:56.070Z,4.22
2022-10-20T16:14:22.457Z,4.63
2022-10-20T16:16:48.822Z,4.50
2022-10-20T16:19:15.203Z,4.78
2022-10-20T16:21:41.863Z,4.63
2022-10-20T16:24:08.515Z,5.25
2022-10-20T16:26:34.886Z,4.38
2022-10-20T16:29:01.296Z,4.80
2022-10-20T16:31:27.744Z,4.45
2022-10-20T16:33:54.057Z,5.05
2022-10-20T16:36:21.833Z,4.97
2022-10-20T16:38:48.274Z,5.57
2022-10-20T16:41:15.471Z,5.40
2022-10-20T16:43:43.364Z,6.28
2022-10-20T16:46:10.337Z,5.45
2022-10-20T16:48:39.001Z,5.68
2022-10-20T16:51:07.721Z,5.88
2022-10-20T16:53:34.274Z,6.18
2022-10-20T16:56:00.739Z,6.22
2022-10-20T16:58:27.493Z,6.60
2022-10-20T17:00:58.397Z,5.93
2022-10-20T17:03:24.766Z,6.28
2022-10-20T17:05:55.406Z,7.15
2022-10-20T17:08:22.804Z,7.68
2022-10-20T17:10:54.229Z,7.40
2022-10-20T17:13:20.580Z,7.38
2022-10-20T17:15:46.957Z,6.38
2022-10-20T17:18:13.276Z,7.32
2022-10-20T17:20:39.771Z,6.85
2022-10-20T17:23:06.082Z,6.82
2022-10-20T17:25:37.232Z,7.45
2022-10-20T17:28:03.872Z,7.32
2022-10-20T17:30:30.282Z,7.32
2022-10-20T17:32:56.681Z,7.50
2022-10-20T17:35:23.132Z,7.05
2022-10-20T17:37:49.513Z,6.97
2022-10-20T17:42:42.243Z,7.53
2022-10-20T17:45:08.713Z,7.38
2022-10-20T17:47:35.048Z,7.32
2022-10-20T17:50:01.631Z,7.05
2022-10-20T17:52:29.045Z,7.05
2022-10-20T17:57:37.360Z,7.38
2022-10-20T18:00:07.840Z,6.90
2022-10-20T18:02:36.612Z,7.47
2022-10-20T18:05:03.439Z,7.20
2022-10-20T18:07:30.029Z,7.63
2022-10-20T18:09:56.339Z,7.88
2022-10-20T18:12:22.674Z,7.90
2022-10-20T18:14:49.039Z,7.15
2022-10-20T18:17:15.575Z,7.65
2022-10-20T18:19:41.948Z,7.35
2022-10-20T18:22:08.239Z,7.43
2022-10-20T18:24:35.585Z,8.15
2022-10-20T18:27:01.953Z,7.55
2022-10-20T18:29:28.280Z,7.68
2022-10-20T18:31:54.654Z,7.57
2022-10-20T18:34:21.034Z,7.50
2022-10-20T18:36:47.457Z,7.13
2022-10-20T18:39:17.248Z,6.60
2022-10-20T18:41:44.254Z,7.50
2022-10-20T18:44:11.991Z,7.50
2022-10-20T18:46:39.507Z,7.43
2022-10-20T18:49:09.355Z,7.68
2022-10-20T18:51:36.311Z,8.20
2022-10-20T18:54:03.448Z,8.60
2022-10-20T18:56:30.401Z,7.72
2022-10-20T18:58:57.933Z,7.15
2022-10-20T19:01:29.084Z,6.90
2022-10-20T19:03:56.782Z,6.95
2022-10-20T19:06:24.997Z,6.72
2022-10-20T19:08:55.121Z,6.18
2022-10-20T19:11:23.054Z,6.43
2022-10-20T19:13:49.571Z,6.10
2022-10-20T19:16:17.770Z,5.97
2022-10-20T19:18:45.284Z,6.15
2022-10-20T19:21:11.812Z,6.45
2022-10-20T19:23:40.301Z,6.07
2022-10-20T19:26:08.646Z,6.00
2022-10-20T19:28:36.843Z,6.75
2022-10-20T19:31:18.473Z,6.13
2022-10-20T19:33:48.276Z,6.00
2022-10-20T19:36:14.614Z,6.53
2022-10-20T19:38:41.053Z,6.13
2022-10-20T19:41:07.458Z,6.00
2022-10-20T19:43:34.950Z,5.80
2022-10-20T19:46:01.250Z,5.10
2022-10-20T19:48:28.100Z,5.28
2022-10-20T19:50:54.696Z,4.95
2022-10-20T19:53:21.261Z,4.80
2022-10-20T19:55:48.328Z,5.25
2022-10-20T19:58:15.044Z,5.05
2022-10-20T20:00:45.504Z,4.82
2022-10-20T20:03:11.898Z,4.65
2022-10-20T20:05:38.260Z,4.45
2022-10-20T20:08:04.909Z,4.38
2022-10-20T20:10:31.519Z,4.40
2022-10-20T20:12:58.267Z,4.35
2022-10-20T20:15:24.898Z,4.30
2022-10-20T20:17:51.291Z,5.13
2022-10-20T20:20:17.671Z,4.72
2022-10-20T20:22:43.962Z,4.32
2022-10-20T20:25:10.387Z,4.40
2022-10-20T20:27:37.115Z,3.95
2022-10-20T20:30:04.547Z,4.20
2022-10-20T20:32:32.137Z,4.50
2022-10-20T20:34:58.854Z,4.55
2022-10-20T20:37:25.464Z,4.70
2022-10-20T20:39:51.775Z,4.43
2022-10-20T20:42:18.184Z,4.20
2022-10-20T20:44:44.582Z,4.43
2022-10-20T20:47:10.973Z,4.38
2022-10-20T20:49:37.346Z,4.80
2022-10-20T20:52:03.725Z,6.85
2022-10-20T20:54:32.902Z,35.88
2022-10-20T20:56:59.443Z,16.58
2022-10-20T20:59:25.819Z,5.97
2022-10-20T21:01:52.174Z,5.80
2022-10-20T21:04:18.551Z,5.82
2022-10-20T21:07:03.349Z,5.30
2022-10-20T21:09:29.827Z,5.72
2022-10-20T21:11:56.148Z,5.57
2022-10-20T21:14:22.578Z,5.97
2022-10-20T21:16:48.910Z,4.97
2022-10-20T21:19:15.347Z,5.30
2022-10-20T21:21:50.589Z,5.28
2022-10-20T21:24:17.717Z,5.30
2022-10-20T21:26:44.146Z,5.50
2022-10-20T21:29:10.516Z,4.93
2022-10-20T21:31:36.853Z,5.70
2022-10-20T21:34:04.822Z,5.43
2022-10-20T21:36:32.429Z,4.88
2022-10-20T21:38:59.307Z,4.85
2022-10-20T21:41:28.424Z,4.50
2022-10-20T21:43:55.973Z,4.55
2022-10-20T21:46:35.960Z,4.40
2022-10-20T21:49:03.782Z,3.90
2022-10-20T21:51:31.616Z,3.55
2022-10-20T21:53:59.107Z,3.97
2022-10-20T21:56:25.627Z,4.55
2022-10-20T21:58:52.499Z,4.05
2022-10-20T22:01:20.038Z,4.40
2022-10-20T22:03:47.389Z,4.20
2022-10-20T22:06:15.037Z,4.50
2022-10-20T22:08:43.189Z,4.60
2022-10-20T22:11:11.006Z,4.82
2022-10-20T22:13:37.398Z,4.38
2022-10-20T22:16:07.648Z,4.50
2022-10-20T22:18:33.980Z,4.47
2022-10-20T22:21:04.416Z,4.70
2022-10-20T22:23:30.793Z,4.13
2022-10-20T22:25:57.227Z,4.25
2022-10-20T22:28:23.971Z,4.53
2022-10-20T22:30:50.404Z,4.68
2022-10-20T22:33:16.881Z,4.53
2022-10-20T22:35:43.501Z,4.55
2022-10-20T22:38:10.052Z,5.13
2022-10-20T22:40:36.565Z,4.47
2022-10-20T22:43:03.004Z,4.28
2022-10-20T22:45:29.448Z,4.68
2022-10-20T22:47:55.826Z,4.68
2022-10-20T22:50:22.169Z,4.50
2022-10-20T22:52:48.749Z,4.50
2022-10-20T22:55:15.070Z,4.80
2022-10-20T22:57:41.481Z,4.30
2022-10-20T23:00:08.183Z,4.60
2022-10-20T23:02:34.560Z,4.82
2022-10-20T23:05:01.056Z,4.38
2022-10-20T23:07:27.361Z,4.80
2022-10-20T23:09:53.720Z,4.63
2022-10-20T23:12:20.106Z,4.80
2022-10-20T23:14:46.472Z,5.15
2022-10-20T23:17:12.784Z,4.95
2022-10-20T23:19:39.152Z,5.05
2022-10-20T23:22:05.514Z,4.57
2022-10-20T23:24:31.793Z,4.78
2022-10-20T23:26:58.198Z,4.97
2022-10-20T23:29:24.561Z,4.85
2022-10-20T23:31:50.853Z,4.68
2022-10-20T23:34:17.245Z,5.10
2022-10-20T23:36:43.556Z,4.75
2022-10-20T23:39:10.069Z,5.13
2022-10-20T23:41:36.451Z,4.97
2022-10-20T23:44:02.778Z,4.82
2022-10-20T23:46:32.257Z,4.75
2022-10-20T23:48:58.900Z,4.70
2022-10-20T23:51:25.272Z,5.00
2022-10-20T23:53:51.763Z,4.88
2022-10-20T23:56:18.092Z,5.38
2022-10-20T23:58:44.513Z,4.82
